PWSweather.com
Personal Weather Stations
Station Observations
IMAZOWIE6
WarszawaPL

WarszawaPL

Lat: 52.27957, Lon: 21.05489

Elevation: 100

Station Type: WS1080

http://stacjapogody.waw.pl/

High Low Average
Temperature 38.7°F3.7°C 32.0°F0.0°C 34.8°F1.6°C
Dew Point -16.7°F-27.1°C -169.6°F-112.0°C -166.1°F-110.1°C
Winds 2.0 mph 3.2 kmh Calm Calm Calm NCalm N
Wind Gusts 7.4 mph11.9 kmh -- 2.0 mph3.2 kmh
Humidity 10% 10% 10%
Pressure 29.47 in998.0 mb 29.22 in989.5 mb -
Precipitation 0.00 in0.0 mm - -
Hour Temp Dew Point Humidity Winds Wind Gusts Pressure Precip Precip Rate Daily Precip Total
12:04 AM 35.8°F2.1°C -169.2°F-111.8°C - Calm Calm 2.0 mph3.2 kmh 29.38 in994.9 mb 0.00 in0.0 mm 0.00 in0.0 mm 0.00 in0.0 mm
12:19 AM 36.0°F2.2°C -169.2°F-111.8°C - Calm Calm 2.0 mph3.2 kmh 29.39 in995.3 mb 0.00 in0.0 mm 0.00 in0.0 mm 0.00 in0.0 mm
12:34 AM 35.6°F2.0°C -169.2°F-111.8°C - Calm Calm 0.6 mph1.0 kmh 29.40 in995.6 mb 0.00 in0.0 mm 0.00 in0.0 mm 0.00 in0.0 mm
12:49 AM 35.4°F1.9°C -169.3°F-111.8°C - Calm Calm -- 29.40 in995.6 mb 0.00 in0.0 mm 0.00 in0.0 mm 0.00 in0.0 mm
01:04 AM 35.2°F1.8°C -169.3°F-111.8°C - Calm Calm -- 29.40 in995.6 mb 0.00 in0.0 mm 0.00 in0.0 mm 0.00 in0.0 mm
01:19 AM 35.4°F1.9°C -169.3°F-111.8°C - Calm Calm 1.4 mph2.3 kmh 29.41 in995.9 mb 0.00 in0.0 mm 0.00 in0.0 mm 0.00 in0.0 mm
01:34 AM 35.1°F1.7°C -169.3°F-111.8°C - Calm Calm -- 29.41 in995.9 mb 0.00 in0.0 mm 0.00 in0.0 mm 0.00 in0.0 mm
01:49 AM 35.4°F1.9°C -169.3°F-111.8°C - Calm Calm -- 29.42 in996.3 mb 0.00 in0.0 mm 0.00 in0.0 mm 0.00 in0.0 mm
02:04 AM 35.6°F2.0°C -169.2°F-111.8°C - Calm Calm 1.4 mph2.3 kmh 29.42 in996.3 mb 0.00 in0.0 mm 0.00 in0.0 mm 0.00 in0.0 mm
02:19 AM 35.8°F2.1°C -169.2°F-111.8°C - Calm Calm 0.6 mph1.0 kmh 29.42 in996.3 mb 0.00 in0.0 mm 0.00 in0.0 mm 0.00 in0.0 mm
02:34 AM 35.6°F2.0°C -169.2°F-111.8°C - Calm Calm 0.6 mph1.0 kmh 29.42 in996.3 mb 0.00 in0.0 mm 0.00 in0.0 mm 0.00 in0.0 mm
02:49 AM 35.6°F2.0°C -169.2°F-111.8°C - Calm Calm -- 29.42 in996.3 mb 0.00 in0.0 mm 0.00 in0.0 mm 0.00 in0.0 mm
03:04 AM 35.6°F2.0°C -169.2°F-111.8°C - Calm Calm -- 29.42 in996.3 mb 0.00 in0.0 mm 0.00 in0.0 mm 0.00 in0.0 mm
03:19 AM 35.4°F1.9°C -169.3°F-111.8°C - Calm Calm 0.6 mph1.0 kmh 29.42 in996.3 mb 0.00 in0.0 mm 0.00 in0.0 mm 0.00 in0.0 mm
03:34 AM 35.4°F1.9°C -169.3°F-111.8°C - Calm Calm -- 29.42 in996.3 mb 0.00 in0.0 mm 0.00 in0.0 mm 0.00 in0.0 mm
03:46 AM 35.4°F1.9°C -169.3°F-111.8°C - Calm Calm -- 29.42 in996.3 mb 0.00 in0.0 mm 0.00 in0.0 mm 0.00 in0.0 mm
04:04 AM 35.1°F1.7°C -169.3°F-111.8°C - Calm Calm -- 29.43 in996.6 mb 0.00 in0.0 mm 0.00 in0.0 mm 0.00 in0.0 mm
04:19 AM 35.1°F1.7°C -169.3°F-111.8°C - Calm Calm -- 29.44 in997.0 mb 0.00 in0.0 mm 0.00 in0.0 mm 0.00 in0.0 mm
04:34 AM 34.9°F1.6°C -169.3°F-111.8°C - Calm Calm -- 29.43 in996.6 mb 0.00 in0.0 mm 0.00 in0.0 mm 0.00 in0.0 mm
04:49 AM 34.7°F1.5°C -169.3°F-111.8°C - Calm Calm -- 29.44 in997.0 mb 0.00 in0.0 mm 0.00 in0.0 mm 0.00 in0.0 mm
05:04 AM 34.7°F1.5°C -169.3°F-111.8°C - Calm Calm 1.4 mph2.3 kmh 29.44 in997.0 mb 0.00 in0.0 mm 0.00 in0.0 mm 0.00 in0.0 mm
05:19 AM 34.9°F1.6°C -169.3°F-111.8°C - Calm Calm -- 29.44 in997.0 mb 0.00 in0.0 mm 0.00 in0.0 mm 0.00 in0.0 mm
05:34 AM 34.5°F1.4°C -169.3°F-111.8°C - Calm Calm -- 29.44 in997.0 mb 0.00 in0.0 mm 0.00 in0.0 mm 0.00 in0.0 mm
05:49 AM 34.2°F1.2°C -169.4°F-111.9°C - Calm Calm 0.6 mph1.0 kmh 29.45 in997.3 mb 0.00 in0.0 mm 0.00 in0.0 mm 0.00 in0.0 mm
06:04 AM 33.4°F0.8°C -169.5°F-111.9°C - Calm Calm -- 29.46 in997.6 mb 0.00 in0.0 mm 0.00 in0.0 mm 0.00 in0.0 mm
06:19 AM 32.7°F0.4°C -169.5°F-111.9°C - Calm Calm -- 29.46 in997.6 mb 0.00 in0.0 mm 0.00 in0.0 mm 0.00 in0.0 mm
06:34 AM 32.5°F0.3°C -169.5°F-111.9°C - Calm Calm -- 29.46 in997.6 mb 0.00 in0.0 mm 0.00 in0.0 mm 0.00 in0.0 mm
06:49 AM 32.7°F0.4°C -169.5°F-111.9°C - Calm Calm -- 29.46 in997.6 mb 0.00 in0.0 mm 0.00 in0.0 mm 0.00 in0.0 mm
07:04 AM 32.5°F0.3°C -169.5°F-111.9°C - Calm Calm -- 29.47 in998.0 mb 0.00 in0.0 mm 0.00 in0.0 mm 0.00 in0.0 mm
07:19 AM 32.4°F0.2°C -169.6°F-112.0°C - Calm Calm -- 29.46 in997.6 mb 0.00 in0.0 mm 0.00 in0.0 mm 0.00 in0.0 mm
07:34 AM 32.0°F0.0°C -169.6°F-112.0°C - Calm Calm -- 29.46 in997.6 mb 0.00 in0.0 mm 0.00 in0.0 mm 0.00 in0.0 mm
07:49 AM 32.2°F0.1°C -169.6°F-112.0°C - Calm Calm 2.8 mph4.5 kmh 29.47 in998.0 mb 0.00 in0.0 mm 0.00 in0.0 mm 0.00 in0.0 mm
08:04 AM 32.2°F0.1°C -169.6°F-112.0°C - Calm Calm -- 29.47 in998.0 mb 0.00 in0.0 mm 0.00 in0.0 mm 0.00 in0.0 mm
08:19 AM 32.5°F0.3°C -169.5°F-111.9°C - Calm Calm 1.4 mph2.3 kmh 29.47 in998.0 mb 0.00 in0.0 mm 0.00 in0.0 mm 0.00 in0.0 mm
08:34 AM 33.6°F0.9°C -17.2°F-27.3°C 10% Calm Calm -- 29.47 in998.0 mb 0.00 in0.0 mm 0.00 in0.0 mm 0.00 in0.0 mm
08:49 AM 34.2°F1.2°C -16.7°F-27.1°C 10% Calm Calm 0.6 mph1.0 kmh 29.47 in998.0 mb 0.00 in0.0 mm 0.00 in0.0 mm 0.00 in0.0 mm
09:04 AM 35.1°F1.7°C -169.3°F-111.8°C - Calm Calm -- 29.47 in998.0 mb 0.00 in0.0 mm 0.00 in0.0 mm 0.00 in0.0 mm
09:19 AM 34.9°F1.6°C -169.3°F-111.8°C - Calm Calm 0.6 mph1.0 kmh 29.47 in998.0 mb 0.00 in0.0 mm 0.00 in0.0 mm 0.00 in0.0 mm
09:34 AM 38.7°F3.7°C -168.9°F-111.6°C - Calm Calm 0.6 mph1.0 kmh 29.47 in998.0 mb 0.00 in0.0 mm 0.00 in0.0 mm 0.00 in0.0 mm
09:49 AM 36.5°F2.5°C -169.2°F-111.8°C - Calm Calm -- 29.46 in997.6 mb 0.00 in0.0 mm 0.00 in0.0 mm 0.00 in0.0 mm
10:04 AM 35.4°F1.9°C -169.3°F-111.8°C - Calm Calm 2.0 mph3.2 kmh 29.46 in997.6 mb 0.00 in0.0 mm 0.00 in0.0 mm 0.00 in0.0 mm
10:19 AM 34.0°F1.1°C -169.4°F-111.9°C - Calm Calm 0.6 mph1.0 kmh 29.46 in997.6 mb 0.00 in0.0 mm 0.00 in0.0 mm 0.00 in0.0 mm
10:34 AM 34.5°F1.4°C -169.3°F-111.8°C - Calm Calm -- 29.46 in997.6 mb 0.00 in0.0 mm 0.00 in0.0 mm 0.00 in0.0 mm
10:49 AM 34.9°F1.6°C -169.3°F-111.8°C - Calm Calm -- 29.45 in997.3 mb 0.00 in0.0 mm 0.00 in0.0 mm 0.00 in0.0 mm
11:04 AM 34.9°F1.6°C -169.3°F-111.8°C - Calm Calm 0.6 mph1.0 kmh 29.45 in997.3 mb 0.00 in0.0 mm 0.00 in0.0 mm 0.00 in0.0 mm
11:19 AM 35.2°F1.8°C -169.3°F-111.8°C - Calm Calm 0.6 mph1.0 kmh 29.44 in997.0 mb 0.00 in0.0 mm 0.00 in0.0 mm 0.00 in0.0 mm
11:34 AM 35.8°F2.1°C -169.2°F-111.8°C - Calm Calm -- 29.44 in997.0 mb 0.00 in0.0 mm 0.00 in0.0 mm 0.00 in0.0 mm
11:49 AM 36.1°F2.3°C -169.2°F-111.8°C - Calm Calm -- 29.44 in997.0 mb 0.00 in0.0 mm 0.00 in0.0 mm 0.00 in0.0 mm
12:04 PM 36.9°F2.7°C -169.1°F-111.7°C - Calm Calm 2.0 mph3.2 kmh 29.44 in997.0 mb 0.00 in0.0 mm 0.00 in0.0 mm 0.00 in0.0 mm
12:19 PM 37.0°F2.8°C -169.1°F-111.7°C - Calm Calm 2.8 mph4.5 kmh 29.43 in996.6 mb 0.00 in0.0 mm 0.00 in0.0 mm 0.00 in0.0 mm
12:34 PM 37.2°F2.9°C -169.1°F-111.7°C - 0.6 mph N1.0 kmh N 2.8 mph4.5 kmh 29.43 in996.6 mb 0.00 in0.0 mm 0.00 in0.0 mm 0.00 in0.0 mm
12:49 PM 37.4°F3.0°C -169.1°F-111.7°C - Calm Calm -- 29.42 in996.3 mb 0.00 in0.0 mm 0.00 in0.0 mm 0.00 in0.0 mm
01:04 PM 37.6°F3.1°C -169.0°F-111.7°C - Calm Calm 0.6 mph1.0 kmh 29.43 in996.6 mb 0.00 in0.0 mm 0.00 in0.0 mm 0.00 in0.0 mm
01:19 PM 37.6°F3.1°C -169.0°F-111.7°C - Calm Calm 1.4 mph2.3 kmh 29.42 in996.3 mb 0.00 in0.0 mm 0.00 in0.0 mm 0.00 in0.0 mm
01:34 PM 37.6°F3.1°C -169.0°F-111.7°C - Calm Calm 0.6 mph1.0 kmh 29.42 in996.3 mb 0.00 in0.0 mm 0.00 in0.0 mm 0.00 in0.0 mm
01:49 PM 37.8°F3.2°C -169.0°F-111.7°C - Calm Calm 1.4 mph2.3 kmh 29.42 in996.3 mb 0.00 in0.0 mm 0.00 in0.0 mm 0.00 in0.0 mm
02:04 PM 37.8°F3.2°C -169.0°F-111.7°C - Calm Calm -- 29.42 in996.3 mb 0.00 in0.0 mm 0.00 in0.0 mm 0.00 in0.0 mm
02:19 PM 37.9°F3.3°C -169.0°F-111.7°C - Calm Calm 2.0 mph3.2 kmh 29.41 in995.9 mb 0.00 in0.0 mm 0.00 in0.0 mm 0.00 in0.0 mm
02:34 PM 37.8°F3.2°C -169.0°F-111.7°C - Calm Calm 4.0 mph6.4 kmh 29.41 in995.9 mb 0.00 in0.0 mm 0.00 in0.0 mm 0.00 in0.0 mm
02:49 PM 37.4°F3.0°C -169.1°F-111.7°C - Calm Calm 1.4 mph2.3 kmh 29.41 in995.9 mb 0.00 in0.0 mm 0.00 in0.0 mm 0.00 in0.0 mm
03:04 PM 37.2°F2.9°C -169.1°F-111.7°C - Calm Calm 0.6 mph1.0 kmh 29.41 in995.9 mb 0.00 in0.0 mm 0.00 in0.0 mm 0.00 in0.0 mm
03:19 PM 37.0°F2.8°C -169.1°F-111.7°C - 0.6 mph N1.0 kmh N 2.8 mph4.5 kmh 29.40 in995.6 mb 0.00 in0.0 mm 0.00 in0.0 mm 0.00 in0.0 mm
03:34 PM 36.7°F2.6°C -169.1°F-111.7°C - Calm Calm 0.6 mph1.0 kmh 29.39 in995.3 mb 0.00 in0.0 mm 0.00 in0.0 mm 0.00 in0.0 mm
03:49 PM 36.3°F2.4°C -169.2°F-111.8°C - Calm Calm 2.0 mph3.2 kmh 29.39 in995.3 mb 0.00 in0.0 mm 0.00 in0.0 mm 0.00 in0.0 mm
04:04 PM 35.6°F2.0°C -169.2°F-111.8°C - Calm Calm 0.6 mph1.0 kmh 29.39 in995.3 mb 0.00 in0.0 mm 0.00 in0.0 mm 0.00 in0.0 mm
04:19 PM 35.4°F1.9°C -169.3°F-111.8°C - Calm Calm 2.8 mph4.5 kmh 29.38 in994.9 mb 0.00 in0.0 mm 0.00 in0.0 mm 0.00 in0.0 mm
04:34 PM 35.1°F1.7°C -169.3°F-111.8°C - Calm Calm 1.4 mph2.3 kmh 29.38 in994.9 mb 0.00 in0.0 mm 0.00 in0.0 mm 0.00 in0.0 mm
04:49 PM 34.3°F1.3°C -169.4°F-111.9°C - Calm Calm 2.0 mph3.2 kmh 29.37 in994.6 mb 0.00 in0.0 mm 0.00 in0.0 mm 0.00 in0.0 mm
05:04 PM 34.0°F1.1°C -169.4°F-111.9°C - Calm Calm 3.4 mph5.5 kmh 29.37 in994.6 mb 0.00 in0.0 mm 0.00 in0.0 mm 0.00 in0.0 mm
05:19 PM 33.4°F0.8°C -169.5°F-111.9°C - 0.6 mph N1.0 kmh N 3.4 mph5.5 kmh 29.37 in994.6 mb 0.00 in0.0 mm 0.00 in0.0 mm 0.00 in0.0 mm
05:34 PM 33.3°F0.7°C -169.5°F-111.9°C - 1.4 mph N2.3 kmh N 4.0 mph6.4 kmh 29.37 in994.6 mb 0.00 in0.0 mm 0.00 in0.0 mm 0.00 in0.0 mm
05:49 PM 33.1°F0.6°C -169.5°F-111.9°C - 1.4 mph N2.3 kmh N 3.4 mph5.5 kmh 29.38 in994.9 mb 0.00 in0.0 mm 0.00 in0.0 mm 0.00 in0.0 mm
06:04 PM 33.1°F0.6°C -169.5°F-111.9°C - Calm Calm 2.0 mph3.2 kmh 29.37 in994.6 mb 0.00 in0.0 mm 0.00 in0.0 mm 0.00 in0.0 mm
06:19 PM 32.9°F0.5°C -169.5°F-111.9°C - 1.4 mph N2.3 kmh N 4.8 mph7.7 kmh 29.37 in994.6 mb 0.00 in0.0 mm 0.00 in0.0 mm 0.00 in0.0 mm
06:34 PM 32.9°F0.5°C -169.5°F-111.9°C - 1.4 mph N2.3 kmh N 4.0 mph6.4 kmh 29.37 in994.6 mb 0.00 in0.0 mm 0.00 in0.0 mm 0.00 in0.0 mm
06:49 PM 32.9°F0.5°C -169.5°F-111.9°C - 2.0 mph N3.2 kmh N 4.8 mph7.7 kmh 29.36 in994.2 mb 0.00 in0.0 mm 0.00 in0.0 mm 0.00 in0.0 mm
07:04 PM 33.1°F0.6°C -169.5°F-111.9°C - 1.4 mph N2.3 kmh N 2.8 mph4.5 kmh 29.36 in994.2 mb 0.00 in0.0 mm 0.00 in0.0 mm 0.00 in0.0 mm
07:19 PM 33.1°F0.6°C -169.5°F-111.9°C - Calm Calm 2.8 mph4.5 kmh 29.36 in994.2 mb 0.00 in0.0 mm 0.00 in0.0 mm 0.00 in0.0 mm
07:34 PM 33.1°F0.6°C -169.5°F-111.9°C - 2.0 mph N3.2 kmh N 4.8 mph7.7 kmh 29.35 in993.9 mb 0.00 in0.0 mm 0.00 in0.0 mm 0.00 in0.0 mm
07:49 PM 33.4°F0.8°C -169.5°F-111.9°C - 2.0 mph N3.2 kmh N 4.8 mph7.7 kmh 29.34 in993.6 mb 0.00 in0.0 mm 0.00 in0.0 mm 0.00 in0.0 mm
08:04 PM 33.4°F0.8°C -169.5°F-111.9°C - 0.6 mph N1.0 kmh N 2.0 mph3.2 kmh 29.33 in993.2 mb 0.00 in0.0 mm 0.00 in0.0 mm 0.00 in0.0 mm
08:19 PM 33.6°F0.9°C -169.4°F-111.9°C - 1.4 mph N2.3 kmh N 4.8 mph7.7 kmh 29.33 in993.2 mb 0.00 in0.0 mm 0.00 in0.0 mm 0.00 in0.0 mm
08:34 PM 33.6°F0.9°C -169.4°F-111.9°C - 0.6 mph N1.0 kmh N 4.0 mph6.4 kmh 29.32 in992.9 mb 0.00 in0.0 mm 0.00 in0.0 mm 0.00 in0.0 mm
08:49 PM 33.6°F0.9°C -169.4°F-111.9°C - 1.4 mph N2.3 kmh N 5.4 mph8.7 kmh 29.31 in992.6 mb 0.00 in0.0 mm 0.00 in0.0 mm 0.00 in0.0 mm
09:04 PM 33.6°F0.9°C -169.4°F-111.9°C - 1.4 mph N2.3 kmh N 2.8 mph4.5 kmh 29.31 in992.6 mb 0.00 in0.0 mm 0.00 in0.0 mm 0.00 in0.0 mm
09:19 PM 33.6°F0.9°C -169.4°F-111.9°C - 0.6 mph N1.0 kmh N 4.0 mph6.4 kmh 29.30 in992.2 mb 0.00 in0.0 mm 0.00 in0.0 mm 0.00 in0.0 mm
09:34 PM 33.6°F0.9°C -169.4°F-111.9°C - 1.4 mph N2.3 kmh N 4.0 mph6.4 kmh 29.30 in992.2 mb 0.00 in0.0 mm 0.00 in0.0 mm 0.00 in0.0 mm
09:49 PM 33.6°F0.9°C -169.4°F-111.9°C - Calm Calm 2.8 mph4.5 kmh 29.29 in991.9 mb 0.00 in0.0 mm 0.00 in0.0 mm 0.00 in0.0 mm
10:04 PM 33.8°F1.0°C -169.4°F-111.9°C - Calm Calm 2.8 mph4.5 kmh 29.28 in991.5 mb 0.00 in0.0 mm 0.00 in0.0 mm 0.00 in0.0 mm
10:19 PM 34.0°F1.1°C -169.4°F-111.9°C - 0.6 mph N1.0 kmh N 6.2 mph10.0 kmh 29.27 in991.2 mb 0.00 in0.0 mm 0.00 in0.0 mm 0.00 in0.0 mm
10:34 PM 33.8°F1.0°C -169.4°F-111.9°C - Calm Calm 1.4 mph2.3 kmh 29.27 in991.2 mb 0.00 in0.0 mm 0.00 in0.0 mm 0.00 in0.0 mm
10:49 PM 34.0°F1.1°C -169.4°F-111.9°C - 0.6 mph N1.0 kmh N 4.8 mph7.7 kmh 29.26 in990.9 mb 0.00 in0.0 mm 0.00 in0.0 mm 0.00 in0.0 mm
11:04 PM 34.0°F1.1°C -169.4°F-111.9°C - 0.6 mph N1.0 kmh N 7.4 mph11.9 kmh 29.25 in990.5 mb 0.00 in0.0 mm 0.00 in0.0 mm 0.00 in0.0 mm
11:19 PM 33.8°F1.0°C -169.4°F-111.9°C - Calm Calm 0.6 mph1.0 kmh 29.24 in990.2 mb 0.00 in0.0 mm 0.00 in0.0 mm 0.00 in0.0 mm
11:34 PM 34.0°F1.1°C -169.4°F-111.9°C - 0.6 mph N1.0 kmh N 4.8 mph7.7 kmh 29.23 in989.8 mb 0.00 in0.0 mm 0.00 in0.0 mm 0.00 in0.0 mm
11:49 PM 34.0°F1.1°C -169.4°F-111.9°C - 0.6 mph N1.0 kmh N 3.4 mph5.5 kmh 29.22 in989.5 mb 0.00 in0.0 mm 0.00 in0.0 mm 0.00 in0.0 mm